sensor_id;sensor_type;location;lat;lon;timestamp;P1;durP1;ratioP1;P2;durP2;ratioP2
48859;SDS011;34679;51.436;-2.518;2022-08-21T00:01:46;14.90;;;3.13;;
48859;SDS011;34679;51.436;-2.518;2022-08-21T00:04:11;8.88;;;1.92;;
48859;SDS011;34679;51.436;-2.518;2022-08-21T00:06:37;16.10;;;2.35;;
48859;SDS011;34679;51.436;-2.518;2022-08-21T00:09:03;16.10;;;2.67;;
48859;SDS011;34679;51.436;-2.518;2022-08-21T00:11:31;15.48;;;2.67;;
48859;SDS011;34679;51.436;-2.518;2022-08-21T00:13:58;16.60;;;2.60;;
48859;SDS011;34679;51.436;-2.518;2022-08-21T00:16:24;15.50;;;2.60;;
48859;SDS011;34679;51.436;-2.518;2022-08-21T00:18:49;14.05;;;2.42;;
48859;SDS011;34679;51.436;-2.518;2022-08-21T00:21:15;8.98;;;2.30;;
48859;SDS011;34679;51.436;-2.518;2022-08-21T00:23:41;14.90;;;2.33;;
48859;SDS011;34679;51.436;-2.518;2022-08-21T00:26:07;19.35;;;2.90;;
48859;SDS011;34679;51.436;-2.518;2022-08-21T00:28:33;12.63;;;2.50;;
48859;SDS011;34679;51.436;-2.518;2022-08-21T00:30:59;13.27;;;2.13;;
48859;SDS011;34679;51.436;-2.518;2022-08-21T00:33:28;13.27;;;2.10;;
48859;SDS011;34679;51.436;-2.518;2022-08-21T00:35:55;18.40;;;2.70;;
48859;SDS011;34679;51.436;-2.518;2022-08-21T00:38:21;7.88;;;1.83;;
48859;SDS011;34679;51.436;-2.518;2022-08-21T00:40:48;13.98;;;2.83;;
48859;SDS011;34679;51.436;-2.518;2022-08-21T00:43:17;17.80;;;2.63;;
48859;SDS011;34679;51.436;-2.518;2022-08-21T00:45:45;13.00;;;2.25;;
48859;SDS011;34679;51.436;-2.518;2022-08-21T00:48:11;10.95;;;2.13;;
48859;SDS011;34679;51.436;-2.518;2022-08-21T00:50:39;15.05;;;2.42;;
48859;SDS011;34679;51.436;-2.518;2022-08-21T00:53:09;12.88;;;1.98;;
48859;SDS011;34679;51.436;-2.518;2022-08-21T00:55:36;16.27;;;2.75;;
48859;SDS011;34679;51.436;-2.518;2022-08-21T00:58:02;15.57;;;2.58;;
48859;SDS011;34679;51.436;-2.518;2022-08-21T01:00:32;20.05;;;2.90;;
48859;SDS011;34679;51.436;-2.518;2022-08-21T01:03:00;31.45;;;3.33;;
48859;SDS011;34679;51.436;-2.518;2022-08-21T01:05:29;13.68;;;2.25;;
48859;SDS011;34679;51.436;-2.518;2022-08-21T01:07:55;18.75;;;3.42;;
48859;SDS011;34679;51.436;-2.518;2022-08-21T01:10:24;19.00;;;2.47;;
48859;SDS011;34679;51.436;-2.518;2022-08-21T01:12:51;22.05;;;2.83;;
48859;SDS011;34679;51.436;-2.518;2022-08-21T01:15:20;19.27;;;3.45;;
48859;SDS011;34679;51.436;-2.518;2022-08-21T01:17:49;18.17;;;2.80;;
48859;SDS011;34679;51.436;-2.518;2022-08-21T01:20:16;12.63;;;2.53;;
48859;SDS011;34679;51.436;-2.518;2022-08-21T01:22:41;13.95;;;2.10;;
48859;SDS011;34679;51.436;-2.518;2022-08-21T01:25:08;16.13;;;2.40;;
48859;SDS011;34679;51.436;-2.518;2022-08-21T01:27:35;21.63;;;2.72;;
48859;SDS011;34679;51.436;-2.518;2022-08-21T01:30:12;25.23;;;4.10;;
48859;SDS011;34679;51.436;-2.518;2022-08-21T01:32:40;14.27;;;2.17;;
48859;SDS011;34679;51.436;-2.518;2022-08-21T01:35:07;21.70;;;2.97;;
48859;SDS011;34679;51.436;-2.518;2022-08-21T01:37:33;13.32;;;2.53;;
48859;SDS011;34679;51.436;-2.518;2022-08-21T01:39:59;19.83;;;2.90;;
48859;SDS011;34679;51.436;-2.518;2022-08-21T01:42:25;21.40;;;2.83;;
48859;SDS011;34679;51.436;-2.518;2022-08-21T01:44:51;20.98;;;3.22;;
48859;SDS011;34679;51.436;-2.518;2022-08-21T01:47:17;17.50;;;2.33;;
48859;SDS011;34679;51.436;-2.518;2022-08-21T01:49:43;16.42;;;2.53;;
48859;SDS011;34679;51.436;-2.518;2022-08-21T01:52:09;19.60;;;2.58;;
48859;SDS011;34679;51.436;-2.518;2022-08-21T01:54:37;19.30;;;4.45;;
48859;SDS011;34679;51.436;-2.518;2022-08-21T01:57:03;19.55;;;2.85;;
48859;SDS011;34679;51.436;-2.518;2022-08-21T01:59:29;20.75;;;2.72;;
48859;SDS011;34679;51.436;-2.518;2022-08-21T02:01:55;16.58;;;2.30;;
48859;SDS011;34679;51.436;-2.518;2022-08-21T02:04:21;17.70;;;2.47;;
48859;SDS011;34679;51.436;-2.518;2022-08-21T02:06:47;15.90;;;2.30;;
48859;SDS011;34679;51.436;-2.518;2022-08-21T02:09:13;12.35;;;2.20;;
48859;SDS011;34679;51.436;-2.518;2022-08-21T02:11:40;20.35;;;2.60;;
48859;SDS011;34679;51.436;-2.518;2022-08-21T02:14:09;19.35;;;3.00;;
48859;SDS011;34679;51.436;-2.518;2022-08-21T02:16:36;13.43;;;1.90;;
48859;SDS011;34679;51.436;-2.518;2022-08-21T02:19:03;24.38;;;2.70;;
48859;SDS011;34679;51.436;-2.518;2022-08-21T02:21:29;13.25;;;2.20;;
48859;SDS011;34679;51.436;-2.518;2022-08-21T02:23:55;21.50;;;2.63;;
48859;SDS011;34679;51.436;-2.518;2022-08-21T02:26:20;13.57;;;2.17;;
48859;SDS011;34679;51.436;-2.518;2022-08-21T02:28:46;19.20;;;2.25;;
48859;SDS011;34679;51.436;-2.518;2022-08-21T02:31:12;19.92;;;2.75;;
48859;SDS011;34679;51.436;-2.518;2022-08-21T02:33:38;19.02;;;2.55;;
48859;SDS011;34679;51.436;-2.518;2022-08-21T02:36:05;19.15;;;2.08;;
48859;SDS011;34679;51.436;-2.518;2022-08-21T02:38:33;18.58;;;2.30;;
48859;SDS011;34679;51.436;-2.518;2022-08-21T02:41:04;13.10;;;2.35;;
48859;SDS011;34679;51.436;-2.518;2022-08-21T02:43:32;19.60;;;4.13;;
48859;SDS011;34679;51.436;-2.518;2022-08-21T02:45:58;19.20;;;3.20;;
48859;SDS011;34679;51.436;-2.518;2022-08-21T02:48:26;20.38;;;2.70;;
48859;SDS011;34679;51.436;-2.518;2022-08-21T02:50:55;23.70;;;2.88;;
48859;SDS011;34679;51.436;-2.518;2022-08-21T02:53:23;16.45;;;2.25;;
48859;SDS011;34679;51.436;-2.518;2022-08-21T02:55:50;14.73;;;2.45;;
48859;SDS011;34679;51.436;-2.518;2022-08-21T02:58:17;16.88;;;2.53;;
48859;SDS011;34679;51.436;-2.518;2022-08-21T03:00:46;13.63;;;2.00;;
48859;SDS011;34679;51.436;-2.518;2022-08-21T03:03:12;14.65;;;3.08;;
48859;SDS011;34679;51.436;-2.518;2022-08-21T03:05:39;13.20;;;2.58;;
48859;SDS011;34679;51.436;-2.518;2022-08-21T03:08:06;13.25;;;2.30;;
48859;SDS011;34679;51.436;-2.518;2022-08-21T03:10:37;18.17;;;2.70;;
48859;SDS011;34679;51.436;-2.518;2022-08-21T03:13:04;18.95;;;2.30;;
48859;SDS011;34679;51.436;-2.518;2022-08-21T03:15:30;19.10;;;2.55;;
48859;SDS011;34679;51.436;-2.518;2022-08-21T03:17:56;13.23;;;2.20;;
48859;SDS011;34679;51.436;-2.518;2022-08-21T03:20:23;14.85;;;2.75;;
48859;SDS011;34679;51.436;-2.518;2022-08-21T03:22:52;17.92;;;2.47;;
48859;SDS011;34679;51.436;-2.518;2022-08-21T03:25:18;23.05;;;3.22;;
48859;SDS011;34679;51.436;-2.518;2022-08-21T03:27:45;15.40;;;2.50;;
48859;SDS011;34679;51.436;-2.518;2022-08-21T03:30:13;12.70;;;2.17;;
48859;SDS011;34679;51.436;-2.518;2022-08-21T03:32:40;18.80;;;2.85;;
48859;SDS011;34679;51.436;-2.518;2022-08-21T03:35:06;18.88;;;2.40;;
48859;SDS011;34679;51.436;-2.518;2022-08-21T03:37:32;14.05;;;2.55;;
48859;SDS011;34679;51.436;-2.518;2022-08-21T03:39:58;15.43;;;2.70;;
48859;SDS011;34679;51.436;-2.518;2022-08-21T03:42:24;13.77;;;2.05;;
48859;SDS011;34679;51.436;-2.518;2022-08-21T03:44:50;10.77;;;2.22;;
48859;SDS011;34679;51.436;-2.518;2022-08-21T03:47:16;20.27;;;2.88;;
48859;SDS011;34679;51.436;-2.518;2022-08-21T03:49:42;15.75;;;2.90;;
48859;SDS011;34679;51.436;-2.518;2022-08-21T03:52:08;16.13;;;2.97;;
48859;SDS011;34679;51.436;-2.518;2022-08-21T03:54:33;18.05;;;2.72;;
48859;SDS011;34679;51.436;-2.518;2022-08-21T03:56:59;15.30;;;2.55;;
48859;SDS011;34679;51.436;-2.518;2022-08-21T03:59:26;25.40;;;3.22;;
48859;SDS011;34679;51.436;-2.518;2022-08-21T04:01:53;12.85;;;2.28;;
48859;SDS011;34679;51.436;-2.518;2022-08-21T04:04:20;12.68;;;2.33;;
48859;SDS011;34679;51.436;-2.518;2022-08-21T04:06:46;13.82;;;3.60;;
48859;SDS011;34679;51.436;-2.518;2022-08-21T04:09:12;16.95;;;3.05;;
48859;SDS011;34679;51.436;-2.518;2022-08-21T04:11:38;16.75;;;2.40;;
48859;SDS011;34679;51.436;-2.518;2022-08-21T04:14:04;16.48;;;2.78;;
48859;SDS011;34679;51.436;-2.518;2022-08-21T04:16:29;15.45;;;2.95;;
48859;SDS011;34679;51.436;-2.518;2022-08-21T04:18:56;20.80;;;3.92;;
48859;SDS011;34679;51.436;-2.518;2022-08-21T04:21:21;15.80;;;2.30;;
48859;SDS011;34679;51.436;-2.518;2022-08-21T04:23:48;13.15;;;2.58;;
48859;SDS011;34679;51.436;-2.518;2022-08-21T04:26:14;14.30;;;2.33;;
48859;SDS011;34679;51.436;-2.518;2022-08-21T04:28:40;18.77;;;3.80;;
48859;SDS011;34679;51.436;-2.518;2022-08-21T04:31:06;17.52;;;2.75;;
48859;SDS011;34679;51.436;-2.518;2022-08-21T04:33:33;21.77;;;2.97;;
48859;SDS011;34679;51.436;-2.518;2022-08-21T04:35:59;11.20;;;2.55;;
48859;SDS011;34679;51.436;-2.518;2022-08-21T04:38:25;19.92;;;3.20;;
48859;SDS011;34679;51.436;-2.518;2022-08-21T04:40:51;18.50;;;2.80;;
48859;SDS011;34679;51.436;-2.518;2022-08-21T04:43:17;11.93;;;2.35;;
48859;SDS011;34679;51.436;-2.518;2022-08-21T04:45:45;14.48;;;2.45;;
48859;SDS011;34679;51.436;-2.518;2022-08-21T04:48:13;8.43;;;2.30;;
48859;SDS011;34679;51.436;-2.518;2022-08-21T04:51:24;16.83;;;2.58;;
48859;SDS011;34679;51.436;-2.518;2022-08-21T04:53:36;14.23;;;2.45;;
48859;SDS011;34679;51.436;-2.518;2022-08-21T04:56:19;17.00;;;2.30;;
48859;SDS011;34679;51.436;-2.518;2022-08-21T04:58:48;14.75;;;2.67;;
48859;SDS011;34679;51.436;-2.518;2022-08-21T05:01:19;21.55;;;2.30;;
48859;SDS011;34679;51.436;-2.518;2022-08-21T05:03:47;14.30;;;3.65;;
48859;SDS011;34679;51.436;-2.518;2022-08-21T05:06:15;17.60;;;2.22;;
48859;SDS011;34679;51.436;-2.518;2022-08-21T05:08:42;13.65;;;2.55;;
48859;SDS011;34679;51.436;-2.518;2022-08-21T05:11:09;15.15;;;2.47;;
48859;SDS011;34679;51.436;-2.518;2022-08-21T05:13:35;16.73;;;2.42;;
48859;SDS011;34679;51.436;-2.518;2022-08-21T05:16:01;15.40;;;2.22;;
48859;SDS011;34679;51.436;-2.518;2022-08-21T05:18:27;11.57;;;2.33;;
48859;SDS011;34679;51.436;-2.518;2022-08-21T05:20:53;19.67;;;2.72;;
48859;SDS011;34679;51.436;-2.518;2022-08-21T05:23:19;13.55;;;2.65;;
48859;SDS011;34679;51.436;-2.518;2022-08-21T05:25:44;20.60;;;2.63;;
48859;SDS011;34679;51.436;-2.518;2022-08-21T05:28:10;18.63;;;3.30;;
48859;SDS011;34679;51.436;-2.518;2022-08-21T05:30:37;18.40;;;2.47;;
48859;SDS011;34679;51.436;-2.518;2022-08-21T05:33:04;18.13;;;3.45;;
48859;SDS011;34679;51.436;-2.518;2022-08-21T05:35:31;14.98;;;2.80;;
48859;SDS011;34679;51.436;-2.518;2022-08-21T05:37:58;22.45;;;2.42;;
48859;SDS011;34679;51.436;-2.518;2022-08-21T05:40:25;12.55;;;2.33;;
48859;SDS011;34679;51.436;-2.518;2022-08-21T05:42:52;10.50;;;2.20;;
48859;SDS011;34679;51.436;-2.518;2022-08-21T05:45:19;13.80;;;2.20;;
48859;SDS011;34679;51.436;-2.518;2022-08-21T05:47:46;16.67;;;2.72;;
48859;SDS011;34679;51.436;-2.518;2022-08-21T05:50:11;17.73;;;2.88;;
48859;SDS011;34679;51.436;-2.518;2022-08-21T05:52:37;13.48;;;2.25;;
48859;SDS011;34679;51.436;-2.518;2022-08-21T05:55:03;16.67;;;2.50;;
48859;SDS011;34679;51.436;-2.518;2022-08-21T05:57:29;9.52;;;2.10;;
48859;SDS011;34679;51.436;-2.518;2022-08-21T05:59:55;14.52;;;3.33;;
48859;SDS011;34679;51.436;-2.518;2022-08-21T06:02:21;12.52;;;2.42;;
48859;SDS011;34679;51.436;-2.518;2022-08-21T06:04:47;13.80;;;2.65;;
48859;SDS011;34679;51.436;-2.518;2022-08-21T06:07:13;13.60;;;1.85;;
48859;SDS011;34679;51.436;-2.518;2022-08-21T06:09:40;18.33;;;2.58;;
48859;SDS011;34679;51.436;-2.518;2022-08-21T06:12:06;20.17;;;2.70;;
48859;SDS011;34679;51.436;-2.518;2022-08-21T06:14:34;16.25;;;3.25;;
48859;SDS011;34679;51.436;-2.518;2022-08-21T06:17:02;10.15;;;1.92;;
48859;SDS011;34679;51.436;-2.518;2022-08-21T06:19:29;14.25;;;2.33;;
48859;SDS011;34679;51.436;-2.518;2022-08-21T06:21:55;13.93;;;2.28;;
48859;SDS011;34679;51.436;-2.518;2022-08-21T06:24:20;14.25;;;2.70;;
48859;SDS011;34679;51.436;-2.518;2022-08-21T06:26:46;8.88;;;2.75;;
48859;SDS011;34679;51.436;-2.518;2022-08-21T06:29:12;12.68;;;2.13;;
48859;SDS011;34679;51.436;-2.518;2022-08-21T06:31:41;18.90;;;2.50;;
48859;SDS011;34679;51.436;-2.518;2022-08-21T06:34:07;10.65;;;2.50;;
48859;SDS011;34679;51.436;-2.518;2022-08-21T06:36:33;13.07;;;3.22;;
48859;SDS011;34679;51.436;-2.518;2022-08-21T06:38:59;9.68;;;2.08;;
48859;SDS011;34679;51.436;-2.518;2022-08-21T06:41:24;17.48;;;2.97;;
48859;SDS011;34679;51.436;-2.518;2022-08-21T06:43:50;13.68;;;2.30;;
48859;SDS011;34679;51.436;-2.518;2022-08-21T06:46:16;14.43;;;2.60;;
48859;SDS011;34679;51.436;-2.518;2022-08-21T06:48:42;21.13;;;2.45;;
48859;SDS011;34679;51.436;-2.518;2022-08-21T06:51:08;14.70;;;3.28;;
48859;SDS011;34679;51.436;-2.518;2022-08-21T06:53:33;10.55;;;1.83;;
48859;SDS011;34679;51.436;-2.518;2022-08-21T06:55:59;13.93;;;2.38;;
48859;SDS011;34679;51.436;-2.518;2022-08-21T06:58:25;13.40;;;2.80;;
48859;SDS011;34679;51.436;-2.518;2022-08-21T07:00:51;12.07;;;2.28;;
48859;SDS011;34679;51.436;-2.518;2022-08-21T07:03:18;12.65;;;2.72;;
48859;SDS011;34679;51.436;-2.518;2022-08-21T07:05:45;14.00;;;2.30;;
48859;SDS011;34679;51.436;-2.518;2022-08-21T07:08:11;10.43;;;1.98;;
48859;SDS011;34679;51.436;-2.518;2022-08-21T07:10:36;11.43;;;2.05;;
48859;SDS011;34679;51.436;-2.518;2022-08-21T07:13:02;9.23;;;2.03;;
48859;SDS011;34679;51.436;-2.518;2022-08-21T07:15:28;20.02;;;2.55;;
48859;SDS011;34679;51.436;-2.518;2022-08-21T07:17:54;14.13;;;2.17;;
48859;SDS011;34679;51.436;-2.518;2022-08-21T07:20:20;11.10;;;1.98;;
48859;SDS011;34679;51.436;-2.518;2022-08-21T07:22:46;10.52;;;1.90;;
48859;SDS011;34679;51.436;-2.518;2022-08-21T07:25:11;14.20;;;1.92;;
48859;SDS011;34679;51.436;-2.518;2022-08-21T07:27:37;11.88;;;2.30;;
48859;SDS011;34679;51.436;-2.518;2022-08-21T07:30:03;14.70;;;2.65;;
48859;SDS011;34679;51.436;-2.518;2022-08-21T07:32:30;8.65;;;1.90;;
48859;SDS011;34679;51.436;-2.518;2022-08-21T07:34:56;10.40;;;1.80;;
48859;SDS011;34679;51.436;-2.518;2022-08-21T07:37:22;13.75;;;2.60;;
48859;SDS011;34679;51.436;-2.518;2022-08-21T07:39:47;8.88;;;2.47;;
48859;SDS011;34679;51.436;-2.518;2022-08-21T07:42:14;9.23;;;2.50;;
48859;SDS011;34679;51.436;-2.518;2022-08-21T07:44:40;12.10;;;1.95;;
48859;SDS011;34679;51.436;-2.518;2022-08-21T07:47:06;14.18;;;2.03;;
48859;SDS011;34679;51.436;-2.518;2022-08-21T07:49:32;13.07;;;2.63;;
48859;SDS011;34679;51.436;-2.518;2022-08-21T07:51:57;11.95;;;1.80;;
48859;SDS011;34679;51.436;-2.518;2022-08-21T07:54:23;10.38;;;2.40;;
48859;SDS011;34679;51.436;-2.518;2022-08-21T07:56:49;24.63;;;3.90;;
48859;SDS011;34679;51.436;-2.518;2022-08-21T07:59:15;13.35;;;2.45;;
48859;SDS011;34679;51.436;-2.518;2022-08-21T08:01:40;12.45;;;2.80;;
48859;SDS011;34679;51.436;-2.518;2022-08-21T08:04:06;9.48;;;2.20;;
48859;SDS011;34679;51.436;-2.518;2022-08-21T08:06:32;17.10;;;2.42;;
48859;SDS011;34679;51.436;-2.518;2022-08-21T08:08:57;12.52;;;2.10;;
48859;SDS011;34679;51.436;-2.518;2022-08-21T08:11:23;11.88;;;2.80;;
48859;SDS011;34679;51.436;-2.518;2022-08-21T08:13:50;17.08;;;2.60;;
48859;SDS011;34679;51.436;-2.518;2022-08-21T08:16:17;8.20;;;1.80;;
48859;SDS011;34679;51.436;-2.518;2022-08-21T08:18:43;7.95;;;1.83;;
48859;SDS011;34679;51.436;-2.518;2022-08-21T08:21:11;11.52;;;2.05;;
48859;SDS011;34679;51.436;-2.518;2022-08-21T08:23:37;9.75;;;2.42;;
48859;SDS011;34679;51.436;-2.518;2022-08-21T08:26:03;9.80;;;1.90;;
48859;SDS011;34679;51.436;-2.518;2022-08-21T08:28:30;10.50;;;2.28;;
48859;SDS011;34679;51.436;-2.518;2022-08-21T08:30:57;12.52;;;2.15;;
48859;SDS011;34679;51.436;-2.518;2022-08-21T08:33:23;10.43;;;2.00;;
48859;SDS011;34679;51.436;-2.518;2022-08-21T08:35:49;11.32;;;2.35;;
48859;SDS011;34679;51.436;-2.518;2022-08-21T08:38:17;12.55;;;1.92;;
48859;SDS011;34679;51.436;-2.518;2022-08-21T08:41:10;12.77;;;2.17;;
48859;SDS011;34679;51.436;-2.518;2022-08-21T08:43:40;13.82;;;2.50;;
48859;SDS011;34679;51.436;-2.518;2022-08-21T08:46:12;13.52;;;2.20;;
48859;SDS011;34679;51.436;-2.518;2022-08-21T08:48:43;10.82;;;1.77;;
48859;SDS011;34679;51.436;-2.518;2022-08-21T08:51:19;15.80;;;2.10;;
48859;SDS011;34679;51.436;-2.518;2022-08-21T08:53:59;13.77;;;2.37;;
48859;SDS011;34679;51.436;-2.518;2022-08-21T08:56:31;14.95;;;2.38;;
48859;SDS011;34679;51.436;-2.518;2022-08-21T08:59:00;11.13;;;1.92;;
48859;SDS011;34679;51.436;-2.518;2022-08-21T09:01:33;9.48;;;1.85;;
48859;SDS011;34679;51.436;-2.518;2022-08-21T09:03:59;8.85;;;1.83;;
48859;SDS011;34679;51.436;-2.518;2022-08-21T09:06:32;9.98;;;2.08;;
48859;SDS011;34679;51.436;-2.518;2022-08-21T09:09:16;11.93;;;2.90;;
48859;SDS011;34679;51.436;-2.518;2022-08-21T09:12:19;8.38;;;2.00;;
48859;SDS011;34679;51.436;-2.518;2022-08-21T09:14:54;8.30;;;2.15;;
48859;SDS011;34679;51.436;-2.518;2022-08-21T09:17:39;8.82;;;2.08;;
48859;SDS011;34679;51.436;-2.518;2022-08-21T09:25:42;11.07;;;2.75;;
48859;SDS011;34679;51.436;-2.518;2022-08-21T09:28:24;7.65;;;2.05;;
48859;SDS011;34679;51.436;-2.518;2022-08-21T09:30:51;10.85;;;2.28;;
48859;SDS011;34679;51.436;-2.518;2022-08-21T09:33:21;5.88;;;2.00;;
48859;SDS011;34679;51.436;-2.518;2022-08-21T09:35:51;10.88;;;2.05;;
48859;SDS011;34679;51.436;-2.518;2022-08-21T09:38:29;11.95;;;2.22;;
48859;SDS011;34679;51.436;-2.518;2022-08-21T09:40:59;12.95;;;2.25;;
48859;SDS011;34679;51.436;-2.518;2022-08-21T09:43:29;10.32;;;2.40;;
48859;SDS011;34679;51.436;-2.518;2022-08-21T09:48:43;7.40;;;2.22;;
48859;SDS011;34679;51.436;-2.518;2022-08-21T09:51:18;6.65;;;2.10;;
48859;SDS011;34679;51.436;-2.518;2022-08-21T09:53:45;9.32;;;1.65;;
48859;SDS011;34679;51.436;-2.518;2022-08-21T09:56:21;7.88;;;2.00;;
48859;SDS011;34679;51.436;-2.518;2022-08-21T09:59:31;7.82;;;2.13;;
48859;SDS011;34679;51.436;-2.518;2022-08-21T10:02:00;4.15;;;1.52;;
48859;SDS011;34679;51.436;-2.518;2022-08-21T10:04:29;5.88;;;1.60;;
48859;SDS011;34679;51.436;-2.518;2022-08-21T10:07:13;9.70;;;2.15;;
48859;SDS011;34679;51.436;-2.518;2022-08-21T10:09:40;9.90;;;1.90;;
48859;SDS011;34679;51.436;-2.518;2022-08-21T10:12:09;5.72;;;2.03;;
48859;SDS011;34679;51.436;-2.518;2022-08-21T10:14:41;8.25;;;1.70;;
48859;SDS011;34679;51.436;-2.518;2022-08-21T10:17:15;7.13;;;1.83;;
48859;SDS011;34679;51.436;-2.518;2022-08-21T10:19:48;4.60;;;1.75;;
48859;SDS011;34679;51.436;-2.518;2022-08-21T10:25:26;6.70;;;2.00;;
48859;SDS011;34679;51.436;-2.518;2022-08-21T10:28:11;10.57;;;2.30;;
48859;SDS011;34679;51.436;-2.518;2022-08-21T10:33:18;7.80;;;1.88;;
48859;SDS011;34679;51.436;-2.518;2022-08-21T10:36:02;7.32;;;1.60;;
48859;SDS011;34679;51.436;-2.518;2022-08-21T10:51:59;5.57;;;1.75;;
48859;SDS011;34679;51.436;-2.518;2022-08-21T10:57:24;7.10;;;2.13;;
48859;SDS011;34679;51.436;-2.518;2022-08-21T11:00:03;7.03;;;2.15;;
48859;SDS011;34679;51.436;-2.518;2022-08-21T11:02:42;9.00;;;2.03;;
48859;SDS011;34679;51.436;-2.518;2022-08-21T11:05:21;9.32;;;1.90;;
48859;SDS011;34679;51.436;-2.518;2022-08-21T11:07:59;8.43;;;1.95;;
48859;SDS011;34679;51.436;-2.518;2022-08-21T11:10:46;6.72;;;1.75;;
48859;SDS011;34679;51.436;-2.518;2022-08-21T11:19:39;7.07;;;2.28;;
48859;SDS011;34679;51.436;-2.518;2022-08-21T11:25:22;5.28;;;2.10;;
48859;SDS011;34679;51.436;-2.518;2022-08-21T11:30:52;8.40;;;2.00;;
48859;SDS011;34679;51.436;-2.518;2022-08-21T11:39:04;4.57;;;1.33;;
48859;SDS011;34679;51.436;-2.518;2022-08-21T11:41:42;6.35;;;1.95;;
48859;SDS011;34679;51.436;-2.518;2022-08-21T11:44:49;4.65;;;2.40;;
48859;SDS011;34679;51.436;-2.518;2022-08-21T11:50:06;7.28;;;1.80;;
48859;SDS011;34679;51.436;-2.518;2022-08-21T11:55:18;5.10;;;1.67;;
48859;SDS011;34679;51.436;-2.518;2022-08-21T12:03:08;5.70;;;1.58;;
48859;SDS011;34679;51.436;-2.518;2022-08-21T12:05:40;3.28;;;1.52;;
48859;SDS011;34679;51.436;-2.518;2022-08-21T12:10:40;8.68;;;1.90;;
48859;SDS011;34679;51.436;-2.518;2022-08-21T12:13:25;5.47;;;1.45;;
48859;SDS011;34679;51.436;-2.518;2022-08-21T12:16:04;8.10;;;2.10;;
48859;SDS011;34679;51.436;-2.518;2022-08-21T12:18:40;5.82;;;1.88;;
48859;SDS011;34679;51.436;-2.518;2022-08-21T12:21:21;5.82;;;1.92;;
48859;SDS011;34679;51.436;-2.518;2022-08-21T12:26:51;4.68;;;1.58;;
48859;SDS011;34679;51.436;-2.518;2022-08-21T12:29:33;4.95;;;1.70;;
48859;SDS011;34679;51.436;-2.518;2022-08-21T12:32:03;7.22;;;1.65;;
48859;SDS011;34679;51.436;-2.518;2022-08-21T12:34:48;7.45;;;1.70;;
48859;SDS011;34679;51.436;-2.518;2022-08-21T12:37:22;4.38;;;1.70;;
48859;SDS011;34679;51.436;-2.518;2022-08-21T12:39:54;3.63;;;1.23;;
48859;SDS011;34679;51.436;-2.518;2022-08-21T12:42:27;6.90;;;1.98;;
48859;SDS011;34679;51.436;-2.518;2022-08-21T12:45:04;7.70;;;1.92;;
48859;SDS011;34679;51.436;-2.518;2022-08-21T12:47:45;7.97;;;2.15;;
48859;SDS011;34679;51.436;-2.518;2022-08-21T12:50:44;8.82;;;2.03;;
48859;SDS011;34679;51.436;-2.518;2022-08-21T12:53:24;4.88;;;1.63;;
48859;SDS011;34679;51.436;-2.518;2022-08-21T12:55:54;6.93;;;2.15;;
48859;SDS011;34679;51.436;-2.518;2022-08-21T12:58:27;6.63;;;1.80;;
48859;SDS011;34679;51.436;-2.518;2022-08-21T13:00:54;7.07;;;1.75;;
48859;SDS011;34679;51.436;-2.518;2022-08-21T13:03:24;7.65;;;2.20;;
48859;SDS011;34679;51.436;-2.518;2022-08-21T13:05:50;8.65;;;2.30;;
48859;SDS011;34679;51.436;-2.518;2022-08-21T13:08:18;6.57;;;1.98;;
48859;SDS011;34679;51.436;-2.518;2022-08-21T13:10:45;6.68;;;1.88;;
48859;SDS011;34679;51.436;-2.518;2022-08-21T13:13:21;5.43;;;1.70;;
48859;SDS011;34679;51.436;-2.518;2022-08-21T13:15:50;6.35;;;1.98;;
48859;SDS011;34679;51.436;-2.518;2022-08-21T13:18:30;6.88;;;1.88;;
48859;SDS011;34679;51.436;-2.518;2022-08-21T13:21:10;9.52;;;1.95;;
48859;SDS011;34679;51.436;-2.518;2022-08-21T13:23:38;5.80;;;1.83;;
48859;SDS011;34679;51.436;-2.518;2022-08-21T13:26:14;11.43;;;2.10;;
48859;SDS011;34679;51.436;-2.518;2022-08-21T13:28:41;5.40;;;1.58;;
48859;SDS011;34679;51.436;-2.518;2022-08-21T13:31:09;4.28;;;1.50;;
48859;SDS011;34679;51.436;-2.518;2022-08-21T13:33:35;8.05;;;1.95;;
48859;SDS011;34679;51.436;-2.518;2022-08-21T13:36:04;6.63;;;1.52;;
48859;SDS011;34679;51.436;-2.518;2022-08-21T13:38:43;9.07;;;1.60;;
48859;SDS011;34679;51.436;-2.518;2022-08-21T13:41:27;6.13;;;1.98;;
48859;SDS011;34679;51.436;-2.518;2022-08-21T13:44:15;4.78;;;1.58;;
48859;SDS011;34679;51.436;-2.518;2022-08-21T13:46:51;6.53;;;1.58;;
48859;SDS011;34679;51.436;-2.518;2022-08-21T13:49:19;6.10;;;1.85;;
48859;SDS011;34679;51.436;-2.518;2022-08-21T13:56:53;5.47;;;1.75;;
48859;SDS011;34679;51.436;-2.518;2022-08-21T13:59:27;5.03;;;1.67;;
48859;SDS011;34679;51.436;-2.518;2022-08-21T14:01:56;5.93;;;1.40;;
48859;SDS011;34679;51.436;-2.518;2022-08-21T14:07:15;8.32;;;2.70;;
48859;SDS011;34679;51.436;-2.518;2022-08-21T14:09:44;5.72;;;1.83;;
48859;SDS011;34679;51.436;-2.518;2022-08-21T14:12:13;7.10;;;1.80;;
48859;SDS011;34679;51.436;-2.518;2022-08-21T14:14:49;6.47;;;1.73;;
48859;SDS011;34679;51.436;-2.518;2022-08-21T14:17:26;7.82;;;2.15;;
48859;SDS011;34679;51.436;-2.518;2022-08-21T14:20:05;3.53;;;1.58;;
48859;SDS011;34679;51.436;-2.518;2022-08-21T14:22:46;9.73;;;2.20;;
48859;SDS011;34679;51.436;-2.518;2022-08-21T14:25:13;6.60;;;1.65;;
48859;SDS011;34679;51.436;-2.518;2022-08-21T14:27:44;5.82;;;1.63;;
48859;SDS011;34679;51.436;-2.518;2022-08-21T14:30:27;5.38;;;1.73;;
48859;SDS011;34679;51.436;-2.518;2022-08-21T14:32:56;7.13;;;2.17;;
48859;SDS011;34679;51.436;-2.518;2022-08-21T14:35:23;7.80;;;2.03;;
48859;SDS011;34679;51.436;-2.518;2022-08-21T14:37:49;10.77;;;1.85;;
48859;SDS011;34679;51.436;-2.518;2022-08-21T14:40:16;5.78;;;1.80;;
48859;SDS011;34679;51.436;-2.518;2022-08-21T14:42:42;5.13;;;1.40;;
48859;SDS011;34679;51.436;-2.518;2022-08-21T14:45:30;5.90;;;1.70;;
48859;SDS011;34679;51.436;-2.518;2022-08-21T14:47:56;6.70;;;1.70;;
48859;SDS011;34679;51.436;-2.518;2022-08-21T14:50:23;11.25;;;2.20;;
48859;SDS011;34679;51.436;-2.518;2022-08-21T14:52:49;5.90;;;2.05;;
48859;SDS011;34679;51.436;-2.518;2022-08-21T14:55:16;9.43;;;2.22;;
48859;SDS011;34679;51.436;-2.518;2022-08-21T14:57:47;6.93;;;1.58;;
48859;SDS011;34679;51.436;-2.518;2022-08-21T15:00:16;7.78;;;2.20;;
48859;SDS011;34679;51.436;-2.518;2022-08-21T15:02:44;6.28;;;1.55;;
48859;SDS011;34679;51.436;-2.518;2022-08-21T15:05:11;8.57;;;2.10;;
48859;SDS011;34679;51.436;-2.518;2022-08-21T15:07:37;8.30;;;2.58;;
48859;SDS011;34679;51.436;-2.518;2022-08-21T15:10:03;4.78;;;1.70;;
48859;SDS011;34679;51.436;-2.518;2022-08-21T15:12:30;9.73;;;2.03;;
48859;SDS011;34679;51.436;-2.518;2022-08-21T15:14:56;9.30;;;2.45;;
48859;SDS011;34679;51.436;-2.518;2022-08-21T15:17:21;8.05;;;2.42;;
48859;SDS011;34679;51.436;-2.518;2022-08-21T15:19:47;6.38;;;1.75;;
48859;SDS011;34679;51.436;-2.518;2022-08-21T15:22:13;5.03;;;1.83;;
48859;SDS011;34679;51.436;-2.518;2022-08-21T15:24:39;4.28;;;1.88;;
48859;SDS011;34679;51.436;-2.518;2022-08-21T15:27:06;9.43;;;1.70;;
48859;SDS011;34679;51.436;-2.518;2022-08-21T15:29:34;11.07;;;2.00;;
48859;SDS011;34679;51.436;-2.518;2022-08-21T15:32:15;11.55;;;2.20;;
48859;SDS011;34679;51.436;-2.518;2022-08-21T15:34:43;9.25;;;2.17;;
48859;SDS011;34679;51.436;-2.518;2022-08-21T15:37:09;6.53;;;2.03;;
48859;SDS011;34679;51.436;-2.518;2022-08-21T15:39:35;9.00;;;1.83;;
48859;SDS011;34679;51.436;-2.518;2022-08-21T15:42:01;9.13;;;1.95;;
48859;SDS011;34679;51.436;-2.518;2022-08-21T15:44:28;10.93;;;1.95;;
48859;SDS011;34679;51.436;-2.518;2022-08-21T15:46:54;7.22;;;2.40;;
48859;SDS011;34679;51.436;-2.518;2022-08-21T15:49:20;12.18;;;2.22;;
48859;SDS011;34679;51.436;-2.518;2022-08-21T15:51:46;8.00;;;2.83;;